Time;durP1;ratioP1;P1;durP2;ratioP2;P2;SDS_P1;SDS_P2;PMS_P1;PMS_P2;Temp;Humidity;BMP_temperature;BMP_pressure;BME280_temperature;BME280_humidity;BME280_pressure;Samples;Min_cycle;Max_cycle;Signal;HPM_P1;HPM_P2
2024/03/31 00:00:19;;;;;;;15.23;7.00;;;16.90;54.10;;;;;;5010465;28;20856;-57
2024/03/31 00:02:46;;;;;;;29.97;8.10;;;16.90;54.00;;;;;;5004094;28;20190;-57
2024/03/31 00:05:11;;;;;;;21.00;7.43;;;16.90;54.00;;;;;;5010715;28;20456;-57
2024/03/31 00:07:37;;;;;;;19.03;7.40;;;16.90;54.60;;;;;;5010863;28;20993;-58
2024/03/31 00:10:03;;;;;;;21.00;7.30;;;16.90;54.10;;;;;;5010493;28;20272;-57
2024/03/31 00:12:30;;;;;;;14.67;6.60;;;16.90;54.20;;;;;;5011798;28;20220;-58
2024/03/31 00:14:55;;;;;;;18.10;6.50;;;16.90;54.20;;;;;;5010330;28;21178;-58
2024/03/31 00:17:21;;;;;;;20.30;7.13;;;16.90;54.30;;;;;;5011202;28;20476;-56
2024/03/31 00:19:48;;;;;;;25.57;8.37;;;16.90;54.30;;;;;;5010253;28;20190;-55
2024/03/31 00:22:14;;;;;;;16.47;7.27;;;16.90;54.20;;;;;;5011460;28;20429;-57
2024/03/31 00:24:41;;;;;;;26.53;8.60;;;16.90;54.20;;;;;;5010771;28;20826;-57
2024/03/31 00:27:07;;;;;;;17.43;7.87;;;16.90;54.20;;;;;;5010946;28;20445;-57
2024/03/31 00:29:33;;;;;;;18.97;7.60;;;16.80;54.30;;;;;;5009865;28;20487;-57
2024/03/31 00:31:58;;;;;;;16.47;6.50;;;16.80;54.50;;;;;;5011249;28;20186;-54
2024/03/31 00:34:24;;;;;;;14.27;6.83;;;16.70;54.60;;;;;;5010685;28;20182;-55
2024/03/31 00:36:50;;;;;;;12.73;6.40;;;16.70;54.70;;;;;;5010295;28;20626;-56
2024/03/31 00:39:16;;;;;;;24.50;8.60;;;16.60;54.80;;;;;;5010095;28;20201;-58
2024/03/31 00:41:41;;;;;;;16.67;7.63;;;16.60;54.80;;;;;;5010929;28;20178;-57
2024/03/31 00:44:07;;;;;;;18.67;7.80;;;16.30;55.40;;;;;;5010635;28;20665;-57
2024/03/31 00:46:32;;;;;;;16.30;7.27;;;16.20;55.70;;;;;;5010636;28;20648;-56
2024/03/31 00:48:58;;;;;;;18.57;7.30;;;16.20;55.70;;;;;;5009567;28;20222;-56
2024/03/31 00:51:24;;;;;;;12.10;5.37;;;16.30;55.60;;;;;;5011037;28;20186;-56
2024/03/31 00:53:49;;;;;;;19.70;6.00;;;16.30;55.50;;;;;;5010132;28;20654;-55
2024/03/31 00:56:15;;;;;;;20.43;6.80;;;16.40;55.40;;;;;;5010221;28;20277;-57
2024/03/31 00:58:42;;;;;;;20.70;6.50;;;16.50;55.40;;;;;;5009915;28;20189;-59
2024/03/31 01:01:08;;;;;;;19.60;6.63;;;16.50;55.80;;;;;;5010451;28;20424;-57
2024/03/31 01:03:34;;;;;;;16.90;5.60;;;16.60;55.40;;;;;;5010224;28;20421;-56
2024/03/31 01:06:07;;;;;;;14.67;5.10;;;16.50;55.50;;;;;;5010097;28;21005;-57
2024/03/31 01:08:32;;;;;;;17.50;5.90;;;16.50;56.30;;;;;;5009758;28;20193;-57
2024/03/31 01:10:58;;;;;;;23.70;5.10;;;16.50;55.70;;;;;;5010140;28;20417;-57
2024/03/31 01:13:24;;;;;;;11.60;4.13;;;16.60;55.80;;;;;;5010376;28;20209;-58
2024/03/31 01:15:50;;;;;;;14.93;4.93;;;16.60;56.00;;;;;;5009867;28;20583;-56
2024/03/31 01:18:15;;;;;;;10.67;3.50;;;16.50;56.10;;;;;;5009874;28;20476;-58
2024/03/31 01:20:41;;;;;;;15.47;4.30;;;16.50;56.30;;;;;;5009239;28;20220;-56
2024/03/31 01:23:08;;;;;;;14.27;3.80;;;16.50;56.40;;;;;;5010670;28;20306;-56
2024/03/31 01:25:35;;;;;;;15.23;6.23;;;16.50;56.50;;;;;;5009565;28;20182;-58
2024/03/31 01:28:00;;;;;;;12.93;4.77;;;16.50;56.80;;;;;;5010019;28;20895;-58
2024/03/31 01:30:26;;;;;;;13.13;6.10;;;16.50;56.80;;;;;;5009129;28;20504;-56
2024/03/31 01:32:52;;;;;;;14.07;6.60;;;16.40;57.20;;;;;;5010311;28;20240;-57
2024/03/31 01:35:18;;;;;;;17.17;6.57;;;16.50;57.20;;;;;;5009414;28;20280;-57
2024/03/31 01:37:49;;;;;;;18.57;6.97;;;16.50;57.00;;;;;;5010068;28;20567;-56
2024/03/31 01:40:14;;;;;;;18.70;6.50;;;16.60;56.90;;;;;;5009296;28;20268;-58
2024/03/31 01:42:40;;;;;;;22.33;7.83;;;16.60;56.70;;;;;;5010006;28;20504;-58
2024/03/31 01:45:05;;;;;;;18.73;5.47;;;16.60;56.60;;;;;;5010254;28;20252;-62
2024/03/31 01:47:31;;;;;;;14.50;5.83;;;16.70;56.70;;;;;;5009853;28;20240;-55
2024/03/31 01:49:56;;;;;;;19.43;5.57;;;16.70;56.70;;;;;;5009031;28;20640;-57
2024/03/31 01:52:22;;;;;;;14.70;6.07;;;16.70;56.50;;;;;;5010219;28;20177;-56
2024/03/31 01:54:48;;;;;;;14.90;5.77;;;16.70;56.60;;;;;;5009490;28;20174;-61
2024/03/31 01:57:13;;;;;;;17.30;5.80;;;16.70;56.60;;;;;;5010045;28;20217;-58
2024/03/31 01:59:39;;;;;;;17.20;5.63;;;16.70;56.80;;;;;;5009142;28;20292;-59
2024/03/31 02:02:04;;;;;;;15.87;5.30;;;16.70;56.80;;;;;;5010328;28;20182;-58
2024/03/31 02:04:30;;;;;;;12.10;4.80;;;16.70;56.70;;;;;;5009795;28;20178;-61
2024/03/31 02:06:55;;;;;;;19.63;5.10;;;16.70;56.70;;;;;;5009571;28;20321;-57
2024/03/31 02:09:21;;;;;;;11.80;5.00;;;16.70;56.70;;;;;;5008819;28;20189;-55
2024/03/31 02:11:46;;;;;;;27.60;6.57;;;16.70;56.60;;;;;;5010190;28;20185;-60
2024/03/31 02:14:12;;;;;;;13.33;5.40;;;16.70;56.60;;;;;;5009543;28;20252;-62
2024/03/31 02:16:37;;;;;;;22.37;5.20;;;16.70;56.80;;;;;;5009235;28;20226;-62
2024/03/31 02:19:03;;;;;;;13.80;5.13;;;16.60;56.90;;;;;;5008908;28;20182;-61
2024/03/31 02:21:28;;;;;;;26.60;6.03;;;16.70;56.80;;;;;;5009825;28;20232;-59
2024/03/31 02:23:54;;;;;;;16.80;5.50;;;16.70;57.20;;;;;;5009254;28;20194;-63
2024/03/31 02:26:19;;;;;;;14.67;4.60;;;16.70;56.70;;;;;;5009097;28;20186;-62
2024/03/31 02:28:45;;;;;;;18.33;4.70;;;16.70;56.80;;;;;;5000956;28;20237;-61
2024/03/31 02:31:11;;;;;;;14.47;5.30;;;16.70;56.80;;;;;;5011953;28;20662;-59
2024/03/31 02:33:36;;;;;;;16.60;5.47;;;16.70;56.50;;;;;;5013115;28;20685;-63
2024/03/31 02:36:02;;;;;;;20.23;5.47;;;16.70;56.60;;;;;;5012764;28;20213;-57
2024/03/31 02:38:27;;;;;;;12.20;5.27;;;16.70;56.50;;;;;;5012859;28;20257;-59
2024/03/31 02:40:53;;;;;;;15.93;5.80;;;16.70;56.30;;;;;;5013107;28;20269;-59
2024/03/31 02:43:18;;;;;;;11.33;5.63;;;16.80;56.40;;;;;;5013560;28;20189;-66
2024/03/31 02:45:44;;;;;;;15.30;5.47;;;16.80;56.30;;;;;;5011936;28;20665;-60
2024/03/31 02:48:09;;;;;;;20.60;6.10;;;16.80;56.20;;;;;;5013163;28;20780;-57
2024/03/31 02:50:35;;;;;;;13.77;5.17;;;16.90;56.10;;;;;;5012255;28;20186;-60
2024/03/31 02:53:01;;;;;;;20.40;6.20;;;16.90;55.80;;;;;;5013187;28;20610;-59
2024/03/31 02:55:26;;;;;;;14.07;5.93;;;17.00;55.70;;;;;;5011848;28;20269;-61
2024/03/31 02:57:52;;;;;;;17.53;4.90;;;17.00;55.60;;;;;;5012882;28;20222;-56
2024/03/31 03:00:18;;;;;;;17.93;5.77;;;16.90;55.70;;;;;;5010044;28;20210;-56
2024/03/31 03:02:43;;;;;;;24.87;5.40;;;16.80;55.70;;;;;;5012965;28;20567;-56
2024/03/31 03:05:09;;;;;;;21.97;6.10;;;16.80;55.80;;;;;;5011433;28;20186;-59
2024/03/31 03:07:35;;;;;;;27.37;6.10;;;16.80;56.10;;;;;;5012783;28;20217;-61
2024/03/31 03:10:01;;;;;;;19.23;5.67;;;16.80;56.10;;;;;;5011625;28;20182;-57
2024/03/31 03:12:27;;;;;;;17.77;6.03;;;16.80;56.00;;;;;;5012651;28;20775;-60
2024/03/31 03:14:53;;;;;;;18.67;5.80;;;16.80;55.90;;;;;;5011512;28;20441;-61
2024/03/31 03:17:19;;;;;;;13.60;5.50;;;16.70;56.10;;;;;;5011940;28;20236;-66
2024/03/31 03:19:45;;;;;;;22.60;5.20;;;16.60;56.40;;;;;;5011399;28;20421;-59
2024/03/31 03:22:10;;;;;;;21.03;5.80;;;16.70;56.30;;;;;;5012519;28;20214;-55
2024/03/31 03:24:36;;;;;;;22.40;6.10;;;16.70;56.20;;;;;;5011391;28;20186;-57
2024/03/31 03:27:02;;;;;;;15.33;6.70;;;16.60;56.00;;;;;;5012090;28;20206;-56
2024/03/31 03:29:28;;;;;;;15.80;5.23;;;16.70;55.90;;;;;;5010979;28;20200;-59
2024/03/31 03:31:53;;;;;;;19.23;6.40;;;16.70;55.90;;;;;;5012308;28;20445;-59
2024/03/31 03:34:19;;;;;;;17.30;5.93;;;16.60;56.40;;;;;;5011278;28;20263;-66
2024/03/31 03:36:44;;;;;;;15.70;6.00;;;16.60;56.00;;;;;;5011216;28;20210;-56
2024/03/31 03:39:10;;;;;;;13.90;5.50;;;16.60;56.10;;;;;;5011285;28;20934;-56
2024/03/31 03:41:36;;;;;;;18.37;5.50;;;16.50;55.90;;;;;;5012139;28;20276;-59
2024/03/31 03:44:01;;;;;;;13.73;5.20;;;16.50;55.90;;;;;;5011370;28;20217;-61
2024/03/31 03:46:27;;;;;;;20.20;4.97;;;16.50;56.00;;;;;;5011066;28;20721;-62
2024/03/31 03:48:53;;;;;;;16.30;6.20;;;16.30;56.30;;;;;;5011000;28;20619;-56
2024/03/31 03:51:19;;;;;;;12.30;5.70;;;16.30;56.30;;;;;;5011784;28;20201;-65
2024/03/31 03:53:45;;;;;;;20.30;5.63;;;16.30;56.20;;;;;;5011278;28;20433;-57
2024/03/31 03:56:10;;;;;;;14.03;6.60;;;16.30;56.30;;;;;;5011158;28;20281;-56
2024/03/31 03:58:36;;;;;;;17.27;6.40;;;16.20;56.70;;;;;;5010874;28;20232;-58
2024/03/31 04:01:01;;;;;;;10.87;5.60;;;16.20;56.90;;;;;;5011359;28;20808;-61
2024/03/31 04:03:27;;;;;;;15.63;5.77;;;16.20;56.70;;;;;;5010937;28;20614;-59
2024/03/31 04:05:55;;;;;;;14.03;4.90;;;16.20;56.60;;;;;;5011042;28;20240;-56
2024/03/31 04:08:21;;;;;;;11.90;5.30;;;16.20;56.70;;;;;;5011309;28;20212;-61
2024/03/31 04:10:47;;;;;;;10.27;5.27;;;16.10;56.40;;;;;;5010606;28;20428;-57
2024/03/31 04:13:13;;;;;;;17.87;5.40;;;16.10;56.00;;;;;;5011219;28;20233;-56
2024/03/31 04:15:39;;;;;;;8.30;4.90;;;16.00;55.80;;;;;;5010394;28;20428;-56
2024/03/31 04:18:05;;;;;;;14.70;5.30;;;16.00;55.90;;;;;;5011238;28;20473;-56
2024/03/31 04:20:31;;;;;;;22.83;6.00;;;16.00;56.00;;;;;;5010207;28;20428;-56
2024/03/31 04:22:56;;;;;;;17.20;6.10;;;15.90;55.90;;;;;;5011233;28;20831;-56
2024/03/31 04:25:22;;;;;;;16.70;6.10;;;15.80;55.70;;;;;;5010278;28;20185;-58
2024/03/31 04:27:51;;;;;;;14.63;5.63;;;15.80;55.70;;;;;;5010895;28;20243;-61
2024/03/31 04:30:17;;;;;;;13.77;5.47;;;15.70;55.90;;;;;;5010165;28;20190;-56
2024/03/31 04:32:42;;;;;;;10.50;5.13;;;15.70;56.20;;;;;;5010867;28;20416;-60
2024/03/31 04:35:08;;;;;;;14.57;5.90;;;15.70;56.60;;;;;;5010198;28;20201;-64
2024/03/31 04:37:33;;;;;;;20.17;5.77;;;15.60;56.30;;;;;;5010815;28;20284;-56
2024/03/31 04:39:59;;;;;;;9.67;4.33;;;15.60;56.10;;;;;;5009925;28;20229;-57
2024/03/31 04:42:24;;;;;;;17.60;5.20;;;15.50;56.80;;;;;;5010467;28;20189;-57
2024/03/31 04:44:51;;;;;;;17.83;5.77;;;15.50;57.10;;;;;;5009896;28;20186;-62
2024/03/31 04:47:17;;;;;;;13.13;5.20;;;15.50;57.00;;;;;;5010407;28;20225;-55
2024/03/31 04:49:43;;;;;;;9.37;5.33;;;15.50;56.80;;;;;;5009781;28;20425;-55
2024/03/31 04:52:08;;;;;;;13.80;5.33;;;15.40;56.50;;;;;;5010514;28;20196;-61
2024/03/31 04:54:34;;;;;;;13.57;4.97;;;15.40;56.40;;;;;;5009406;28;20181;-58
2024/03/31 04:56:59;;;;;;;15.63;5.40;;;15.40;56.40;;;;;;5010257;28;20221;-56
2024/03/31 04:59:25;;;;;;;9.57;5.97;;;15.30;56.50;;;;;;5009525;28;20236;-55
2024/03/31 05:01:51;;;;;;;10.10;4.90;;;15.20;56.60;;;;;;5010359;28;20186;-58
2024/03/31 05:04:16;;;;;;;12.33;5.20;;;15.20;56.70;;;;;;5009900;28;20740;-62
2024/03/31 05:06:42;;;;;;;18.63;8.20;;;15.20;56.80;;;;;;5010240;28;20743;-55
2024/03/31 05:09:07;;;;;;;16.43;7.20;;;15.20;56.80;;;;;;5009604;28;20517;-55
2024/03/31 05:11:33;;;;;;;12.50;4.77;;;15.20;56.80;;;;;;5010300;28;20269;-56
2024/03/31 05:13:58;;;;;;;15.37;5.27;;;15.20;56.90;;;;;;5009628;28;20190;-60
2024/03/31 05:16:24;;;;;;;20.60;6.97;;;15.20;56.90;;;;;;5009592;28;20206;-60
2024/03/31 05:18:54;;;;;;;15.60;5.63;;;15.20;56.90;;;;;;5009063;28;20182;-62
2024/03/31 05:21:20;;;;;;;18.50;7.63;;;15.20;57.00;;;;;;5010054;28;20301;-66
2024/03/31 05:23:46;;;;;;;15.67;6.37;;;15.20;57.00;;;;;;5001465;28;20448;-59
2024/03/31 05:26:13;;;;;;;17.83;5.30;;;15.10;56.90;;;;;;5009556;28;20471;-55
2024/03/31 05:28:39;;;;;;;13.70;6.47;;;15.10;57.00;;;;;;5009074;28;20444;-60
2024/03/31 05:31:05;;;;;;;13.53;6.60;;;15.10;57.00;;;;;;5009959;28;20929;-58
2024/03/31 05:33:31;;;;;;;19.07;7.30;;;15.10;56.90;;;;;;5009338;28;20424;-59
2024/03/31 05:35:57;;;;;;;12.97;6.10;;;15.20;56.90;;;;;;5009564;28;20278;-60
2024/03/31 05:38:23;;;;;;;22.77;10.00;;;15.10;57.10;;;;;;5009734;28;20469;-57
2024/03/31 05:40:49;;;;;;;20.10;7.87;;;15.20;57.40;;;;;;5008950;28;20413;-60
2024/03/31 05:43:14;;;;;;;15.50;6.50;;;15.20;57.20;;;;;;5009758;28;21187;-58
2024/03/31 05:45:41;;;;;;;9.07;5.90;;;15.20;56.90;;;;;;5008668;28;20182;-56
2024/03/31 05:48:11;;;;;;;23.20;9.53;;;15.30;56.70;;;;;;5009905;28;20240;-56
2024/03/31 05:50:38;;;;;;;16.90;5.30;;;15.30;56.50;;;;;;5008818;28;20512;-59
2024/03/31 05:53:05;;;;;;;14.77;4.40;;;15.30;56.50;;;;;;5009929;28;20420;-58
2024/03/31 05:55:31;;;;;;;16.83;4.47;;;15.20;56.60;;;;;;5008607;28;20500;-60
2024/03/31 05:57:57;;;;;;;14.47;6.47;;;15.20;56.80;;;;;;5009550;28;20568;-58
2024/03/31 06:00:23;;;;;;;12.97;5.13;;;15.20;56.70;;;;;;5008691;28;20220;-62
2024/03/31 06:02:50;;;;;;;17.57;4.77;;;15.20;56.70;;;;;;5009873;28;20421;-58
2024/03/31 06:05:16;;;;;;;23.80;5.30;;;15.20;56.70;;;;;;5009511;28;20421;-60
2024/03/31 06:07:45;;;;;;;12.50;5.83;;;15.20;57.10;;;;;;5013544;28;20515;-61
2024/03/31 06:10:11;;;;;;;13.17;5.43;;;15.20;57.30;;;;;;5012568;28;20826;-58
2024/03/31 06:12:36;;;;;;;12.03;4.90;;;15.20;57.10;;;;;;5013544;28;20419;-59
2024/03/31 06:15:02;;;;;;;19.60;5.90;;;15.20;56.90;;;;;;5012663;28;20653;-57
2024/03/31 06:17:27;;;;;;;13.40;5.33;;;15.30;56.70;;;;;;5013117;28;20315;-58
2024/03/31 06:19:53;;;;;;;17.40;5.43;;;15.30;56.70;;;;;;5012086;28;20185;-58
2024/03/31 06:22:18;;;;;;;13.40;5.10;;;15.30;56.70;;;;;;5013354;28;20247;-57
2024/03/31 06:24:46;;;;;;;14.33;5.10;;;15.40;56.80;;;;;;5012231;28;20654;-57
2024/03/31 06:27:12;;;;;;;8.57;4.83;;;15.40;56.80;;;;;;5013151;28;20682;-55
2024/03/31 06:29:37;;;;;;;23.23;6.23;;;15.40;56.70;;;;;;5011986;28;20482;-60
2024/03/31 06:32:03;;;;;;;14.73;6.10;;;15.30;56.90;;;;;;5013390;28;20794;-60
2024/03/31 06:34:29;;;;;;;16.23;6.13;;;15.30;57.20;;;;;;5012014;28;20197;-56
2024/03/31 06:36:54;;;;;;;13.53;5.07;;;15.10;57.40;;;;;;5012864;28;20942;-56
2024/03/31 06:39:20;;;;;;;20.83;5.90;;;15.10;57.70;;;;;;5011677;28;20733;-63
2024/03/31 06:41:45;;;;;;;14.53;5.70;;;15.10;57.90;;;;;;5005869;28;20543;-58
2024/03/31 06:44:11;;;;;;;14.30;4.40;;;15.20;58.00;;;;;;5012058;28;20186;-54
2024/03/31 06:46:37;;;;;;;12.10;5.40;;;15.30;58.00;;;;;;5012810;28;20312;-57
2024/03/31 06:49:03;;;;;;;15.97;5.10;;;15.40;58.00;;;;;;5011792;28;20197;-57
2024/03/31 06:51:28;;;;;;;10.80;4.40;;;14.90;59.00;;;;;;5012741;28;20428;-55
2024/03/31 06:53:54;;;;;;;19.77;5.53;;;15.00;59.40;;;;;;5012267;28;20182;-56
2024/03/31 06:56:20;;;;;;;15.40;6.03;;;15.20;58.90;;;;;;5012312;28;20178;-58
2024/03/31 06:58:45;;;;;;;21.13;5.70;;;15.30;58.80;;;;;;5010744;28;20198;-60
2024/03/31 07:01:11;;;;;;;17.80;5.33;;;15.50;58.70;;;;;;5012464;28;20429;-60
2024/03/31 07:03:37;;;;;;;17.50;5.30;;;15.80;57.90;;;;;;5012144;28;20666;-55
2024/03/31 07:06:03;;;;;;;18.77;4.97;;;16.10;57.50;;;;;;5012193;28;20186;-56
2024/03/31 07:08:29;;;;;;;10.47;4.70;;;16.30;57.10;;;;;;5011614;28;20248;-60
2024/03/31 07:10:54;;;;;;;15.87;5.73;;;16.30;56.80;;;;;;5012206;28;20441;-57
2024/03/31 07:13:20;;;;;;;15.93;5.13;;;16.40;56.40;;;;;;5012445;28;20735;-62
2024/03/31 07:15:46;;;;;;;18.40;5.07;;;16.10;56.80;;;;;;5003313;28;20664;-62
2024/03/31 07:18:11;;;;;;;18.23;5.50;;;16.10;57.20;;;;;;5012085;28;20218;-57
2024/03/31 07:20:38;;;;;;;10.90;4.83;;;16.10;57.20;;;;;;5011208;28;20189;-58
2024/03/31 07:23:05;;;;;;;22.77;5.47;;;16.30;57.10;;;;;;5012293;28;20200;-54
2024/03/31 07:25:32;;;;;;;15.43;4.80;;;16.40;56.70;;;;;;5011073;28;20992;-56
2024/03/31 07:27:58;;;;;;;15.30;5.33;;;16.40;57.10;;;;;;5011859;28;20928;-60
2024/03/31 07:30:23;;;;;;;10.70;5.30;;;16.50;56.90;;;;;;5010803;28;20424;-60
2024/03/31 07:32:49;;;;;;;10.60;5.33;;;16.80;56.50;;;;;;5012181;28;20265;-58
2024/03/31 07:35:15;;;;;;;9.83;4.70;;;16.50;56.40;;;;;;5011007;28;20224;-59
2024/03/31 07:37:40;;;;;;;14.50;4.90;;;16.30;57.20;;;;;;5011502;28;20312;-59
2024/03/31 07:40:07;;;;;;;14.83;4.87;;;16.40;57.60;;;;;;5011012;28;20594;-59
2024/03/31 07:42:32;;;;;;;22.53;7.13;;;16.50;56.80;;;;;;5011843;28;20194;-60
2024/03/31 07:44:58;;;;;;;11.20;4.70;;;16.60;56.80;;;;;;5010900;28;20431;-58
2024/03/31 07:47:23;;;;;;;14.20;4.57;;;16.60;56.60;;;;;;5011298;28;20241;-58
2024/03/31 07:49:49;;;;;;;16.40;5.77;;;16.90;57.20;;;;;;5010836;28;20189;-53
2024/03/31 07:52:14;;;;;;;19.93;5.13;;;17.30;56.40;;;;;;5011806;28;20190;-59
2024/03/31 07:54:40;;;;;;;17.20;5.03;;;17.80;55.70;;;;;;5010626;28;20657;-61
2024/03/31 07:57:06;;;;;;;15.30;3.90;;;18.30;55.00;;;;;;5011433;28;20589;-61
2024/03/31 07:59:31;;;;;;;21.83;4.67;;;18.40;53.70;;;;;;5010256;28;20189;-57
2024/03/31 08:01:57;;;;;;;18.87;4.70;;;18.60;53.70;;;;;;5011557;28;20265;-56
2024/03/31 08:04:23;;;;;;;14.23;4.70;;;18.40;53.70;;;;;;5010524;28;20178;-58
2024/03/31 08:06:48;;;;;;;13.30;4.90;;;18.20;54.10;;;;;;5010985;28;20578;-58
2024/03/31 08:09:14;;;;;;;8.70;3.70;;;18.50;53.60;;;;;;5010282;28;20220;-59
2024/03/31 08:11:39;;;;;;;10.40;3.90;;;18.50;53.10;;;;;;5011184;28;20197;-58
2024/03/31 08:14:05;;;;;;;17.70;3.70;;;18.80;53.00;;;;;;5010303;28;20649;-59
2024/03/31 08:16:31;;;;;;;14.67;3.53;;;18.50;53.20;;;;;;5010859;28;20594;-60
2024/03/31 08:18:57;;;;;;;18.40;4.40;;;18.40;53.10;;;;;;5010052;28;20224;-58
2024/03/31 08:21:23;;;;;;;15.43;4.50;;;18.70;52.80;;;;;;5011008;28;20259;-58
2024/03/31 08:23:49;;;;;;;17.00;4.67;;;18.50;52.70;;;;;;5010342;28;20461;-60
2024/03/31 08:26:15;;;;;;;13.70;4.23;;;18.50;52.60;;;;;;5010555;28;20190;-58
2024/03/31 08:28:40;;;;;;;19.00;3.53;;;18.10;52.90;;;;;;5009145;28;20425;-62
2024/03/31 08:31:06;;;;;;;16.77;3.90;;;18.30;53.20;;;;;;5010825;28;20189;-58
2024/03/31 08:33:32;;;;;;;13.63;3.50;;;18.60;53.40;;;;;;5010295;28;20273;-58
2024/03/31 08:35:57;;;;;;;13.53;3.83;;;18.80;52.20;;;;;;5010273;28;20204;-62
2024/03/31 08:38:23;;;;;;;23.83;4.20;;;19.20;52.10;;;;;;5010243;28;20300;-65
2024/03/31 08:40:55;;;;;;;9.97;3.77;;;19.50;51.90;;;;;;5009942;28;20190;-55
2024/03/31 08:43:22;;;;;;;10.63;3.07;;;19.80;51.60;;;;;;5010511;28;20192;-64
2024/03/31 08:45:49;;;;;;;11.97;3.63;;;20.00;51.80;;;;;;5009626;28;20832;-56
2024/03/31 08:48:19;;;;;;;13.23;3.77;;;20.10;50.00;;;;;;5010592;28;20448;-58
2024/03/31 08:50:47;;;;;;;9.30;3.70;;;19.70;50.80;;;;;;5009349;28;20443;-60
2024/03/31 08:53:13;;;;;;;7.47;3.27;;;19.80;50.80;;;;;;5011249;28;20417;-57
2024/03/31 08:55:39;;;;;;;6.93;2.80;;;19.80;50.70;;;;;;5009333;28;20425;-56
2024/03/31 08:58:07;;;;;;;16.50;3.80;;;19.70;50.80;;;;;;5010376;28;20637;-59
2024/03/31 09:00:33;;;;;;;10.67;3.10;;;19.90;50.50;;;;;;5008123;28;20421;-59
2024/03/31 09:02:59;;;;;;;9.67;3.73;;;20.10;50.80;;;;;;5010317;28;20925;-56
2024/03/31 09:05:25;;;;;;;8.53;3.70;;;20.40;50.50;;;;;;5009149;28;20417;-58
2024/03/31 09:07:51;;;;;;;11.07;3.23;;;20.20;49.40;;;;;;5010130;28;20197;-57
2024/03/31 09:10:18;;;;;;;10.63;3.47;;;19.80;50.40;;;;;;5009357;28;20190;-58
2024/03/31 09:12:44;;;;;;;12.30;3.50;;;19.60;50.90;;;;;;5009786;28;20425;-59
2024/03/31 09:15:10;;;;;;;11.03;3.00;;;19.50;51.80;;;;;;5009298;28;20495;-59
2024/03/31 09:17:36;;;;;;;22.20;4.80;;;19.40;51.20;;;;;;5009848;28;20721;-58
2024/03/31 09:20:02;;;;;;;11.43;4.43;;;19.40;51.60;;;;;;5009082;28;20425;-58
2024/03/31 09:22:28;;;;;;;19.57;4.00;;;19.60;51.70;;;;;;5009978;28;20297;-59
2024/03/31 09:24:54;;;;;;;9.90;3.13;;;19.80;51.30;;;;;;5009168;28;20925;-59
2024/03/31 09:27:20;;;;;;;10.00;3.10;;;20.00;50.70;;;;;;5009681;28;20205;-57
2024/03/31 09:29:46;;;;;;;15.93;3.77;;;20.20;50.90;;;;;;5008929;28;20486;-57
2024/03/31 09:32:16;;;;;;;15.97;3.40;;;20.30;50.30;;;;;;5010018;28;20417;-59
2024/03/31 09:34:46;;;;;;;20.57;3.87;;;20.10;50.10;;;;;;5009024;28;20189;-59
2024/03/31 09:37:12;;;;;;;11.37;3.77;;;20.10;50.20;;;;;;5009597;28;20550;-59
2024/03/31 09:39:38;;;;;;;14.87;3.30;;;19.70;50.70;;;;;;5008933;28;21000;-57
2024/03/31 09:42:09;;;;;;;9.97;4.00;;;19.80;50.80;;;;;;5010008;28;20542;-59
2024/03/31 09:44:40;;;;;;;16.67;3.40;;;20.00;50.90;;;;;;5009154;28;20424;-58
2024/03/31 09:47:40;;;;;;;23.43;3.50;;;20.30;50.60;;;;;;5009772;28;20464;-57
2024/03/31 09:50:06;;;;;;;11.27;3.87;;;20.20;50.10;;;;;;4999772;28;20432;-58
2024/03/31 09:52:33;;;;;;;11.83;2.60;;;20.50;50.00;;;;;;5009810;28;20425;-57
2024/03/31 09:55:06;;;;;;;10.30;3.10;;;20.60;49.00;;;;;;5008787;28;20424;-59
2024/03/31 09:57:40;;;;;;;11.80;3.37;;;20.60;49.00;;;;;;5009320;28;20477;-59
2024/03/31 10:00:08;;;;;;;11.10;3.07;;;20.80;49.90;;;;;;5008712;28;20462;-58
2024/03/31 10:02:34;;;;;;;8.30;2.60;;;21.30;48.00;;;;;;5009874;28;20428;-60
2024/03/31 10:05:11;;;;;;;17.57;3.17;;;21.70;47.40;;;;;;5008581;28;20505;-60
2024/03/31 10:07:38;;;;;;;12.23;3.17;;;21.80;46.00;;;;;;5009348;28;20428;-59
2024/03/31 10:10:04;;;;;;;21.53;4.10;;;21.90;46.10;;;;;;5008578;28;20421;-60
2024/03/31 10:12:33;;;;;;;14.17;3.20;;;22.10;45.40;;;;;;5009469;28;20424;-58
2024/03/31 10:15:01;;;;;;;13.40;3.30;;;22.20;45.20;;;;;;5008425;28;20479;-59
2024/03/31 10:17:31;;;;;;;12.30;2.67;;;21.70;45.40;;;;;;5008962;28;20992;-59
2024/03/31 10:19:58;;;;;;;11.60;3.70;;;21.70;44.80;;;;;;5008079;28;20421;-59
2024/03/31 10:22:24;;;;;;;13.00;3.47;;;21.80;44.80;;;;;;5009349;28;20807;-59
2024/03/31 10:24:52;;;;;;;12.70;2.87;;;22.10;44.30;;;;;;5008733;28;20429;-59
2024/03/31 10:27:18;;;;;;;11.43;2.80;;;21.90;44.20;;;;;;5009094;28;20999;-59
2024/03/31 10:29:45;;;;;;;18.80;3.17;;;22.20;44.20;;;;;;5007865;28;21114;-59
2024/03/31 10:32:11;;;;;;;14.13;3.43;;;22.20;43.90;;;;;;5009599;28;20516;-58
2024/03/31 10:34:39;;;;;;;10.07;3.17;;;22.30;43.60;;;;;;5022310;28;20511;-58
2024/03/31 10:37:09;;;;;;;11.40;2.93;;;22.30;44.00;;;;;;5012339;28;20284;-59
2024/03/31 10:39:35;;;;;;;11.40;2.83;;;22.60;44.30;;;;;;5021236;28;20421;-58
2024/03/31 10:42:01;;;;;;;12.03;3.10;;;22.60;42.90;;;;;;5028220;28;20478;-60
2024/03/31 10:44:27;;;;;;;12.80;3.27;;;22.60;43.00;;;;;;5018828;28;20812;-59
2024/03/31 10:46:53;;;;;;;7.10;2.33;;;22.30;44.00;;;;;;5026327;28;20216;-59
2024/03/31 10:49:19;;;;;;;13.17;3.03;;;22.60;44.10;;;;;;5016432;28;20266;-59
2024/03/31 10:51:44;;;;;;;16.93;3.13;;;22.70;43.50;;;;;;5021129;28;20260;-59
2024/03/31 10:54:35;;;;;;;13.40;3.47;;;22.60;43.70;;;;;;5026335;28;20185;-59
2024/03/31 10:57:09;;;;;;;10.57;2.80;;;22.70;43.10;;;;;;5024236;28;20218;-59
2024/03/31 10:59:37;;;;;;;17.23;3.00;;;22.80;43.20;;;;;;5028355;28;20420;-57
2024/03/31 11:02:17;;;;;;;11.23;4.13;;;22.70;43.00;;;;;;5022635;28;20516;-60
2024/03/31 11:04:44;;;;;;;14.80;4.20;;;22.30;44.20;;;;;;5027674;28;20435;-57
2024/03/31 11:07:14;;;;;;;12.37;4.03;;;22.10;44.10;;;;;;5026662;28;20502;-59
2024/03/31 11:09:41;;;;;;;11.57;2.63;;;22.10;44.00;;;;;;5026437;28;20435;-59
2024/03/31 11:12:09;;;;;;;13.37;2.67;;;22.30;44.10;;;;;;5025722;28;20443;-58
2024/03/31 11:14:35;;;;;;;10.17;2.73;;;22.30;43.70;;;;;;5025298;28;20431;-57
2024/03/31 11:17:02;;;;;;;12.53;3.43;;;22.60;43.90;;;;;;5023352;28;20600;-58
2024/03/31 11:19:28;;;;;;;10.23;2.60;;;22.50;43.60;;;;;;5024419;28;20499;-59
2024/03/31 11:22:01;;;;;;;13.53;3.80;;;22.30;44.30;;;;;;5028370;28;20436;-59
2024/03/31 11:24:28;;;;;;;11.90;2.70;;;22.30;44.20;;;;;;5021984;28;20229;-59
2024/03/31 11:26:54;;;;;;;12.77;2.80;;;22.30;43.90;;;;;;5026908;28;20428;-59
2024/03/31 11:29:22;;;;;;;13.90;2.60;;;22.40;44.10;;;;;;5019180;28;20538;-56
2024/03/31 11:31:51;;;;;;;16.23;3.77;;;22.50;44.50;;;;;;5009424;28;20923;-57
2024/03/31 11:34:18;;;;;;;17.33;4.07;;;22.50;44.00;;;;;;5025026;28;20424;-59
2024/03/31 11:36:44;;;;;;;11.37;3.27;;;22.40;44.30;;;;;;5021314;28;20444;-59
2024/03/31 11:39:11;;;;;;;13.63;3.00;;;22.30;44.50;;;;;;5024346;28;20444;-60
2024/03/31 11:41:37;;;;;;;9.13;2.97;;;22.40;44.30;;;;;;5030015;28;20424;-59
2024/03/31 11:44:03;;;;;;;17.20;3.70;;;22.40;44.30;;;;;;5023555;28;20479;-59
2024/03/31 11:46:29;;;;;;;10.93;2.30;;;22.50;44.50;;;;;;5027385;28;20220;-58
2024/03/31 11:48:57;;;;;;;14.80;3.10;;;22.40;44.20;;;;;;5022221;28;20457;-58
2024/03/31 11:51:23;;;;;;;12.67;3.20;;;22.40;44.20;;;;;;5025754;28;20432;-60
2024/03/31 11:53:49;;;;;;;10.70;3.57;;;22.60;44.40;;;;;;5024338;28;20853;-59
2024/03/31 11:56:15;;;;;;;9.33;3.50;;;22.70;44.40;;;;;;5027662;28;20502;-60
2024/03/31 11:58:40;;;;;;;16.63;3.00;;;22.70;44.20;;;;;;5021709;28;20221;-59
2024/03/31 12:01:07;;;;;;;16.73;3.00;;;22.40;44.20;;;;;;5026188;28;20592;-59
2024/03/31 12:03:34;;;;;;;16.43;2.53;;;22.20;44.70;;;;;;5018087;28;20265;-57
2024/03/31 12:06:00;;;;;;;10.37;2.87;;;22.30;45.30;;;;;;5024659;28;20442;-59
2024/03/31 12:08:26;;;;;;;17.20;2.80;;;22.50;45.10;;;;;;5025082;28;20456;-59
2024/03/31 12:10:54;;;;;;;11.70;2.57;;;22.50;44.60;;;;;;5023250;28;20430;-59
2024/03/31 12:13:20;;;;;;;11.80;3.30;;;22.70;44.10;;;;;;5023407;28;20858;-58
2024/03/31 12:15:46;;;;;;;20.43;3.60;;;22.70;43.80;;;;;;5029160;28;20444;-60
2024/03/31 12:18:12;;;;;;;11.20;3.20;;;22.80;43.80;;;;;;5021875;28;20480;-60
2024/03/31 12:20:38;;;;;;;15.67;4.47;;;23.00;43.00;;;;;;5027117;28;20205;-56
2024/03/31 12:23:06;;;;;;;18.23;3.10;;;23.40;43.20;;;;;;5021589;28;20197;-58
2024/03/31 12:25:35;;;;;;;10.90;3.23;;;23.50;42.90;;;;;;5025255;28;20189;-59
2024/03/31 12:28:01;;;;;;;14.40;3.70;;;23.40;43.00;;;;;;5020001;28;20437;-59
2024/03/31 12:30:37;;;;;;;11.67;3.07;;;23.20;43.20;;;;;;5023226;28;20424;-60
2024/03/31 12:33:03;;;;;;;12.70;3.00;;;23.10;43.80;;;;;;5022826;28;20420;-59